sensor_id;sensor_type;location;lat;lon;timestamp;P1;durP1;ratioP1;P2;durP2;ratioP2
78871;SDS011;68247;43.514;1.502;2023-04-24T00:01:09;13.30;;;5.20;;
78871;SDS011;68247;43.514;1.502;2023-04-24T00:03:35;11.93;;;5.00;;
78871;SDS011;68247;43.514;1.502;2023-04-24T00:06:00;11.67;;;4.87;;
78871;SDS011;68247;43.514;1.502;2023-04-24T00:08:26;11.23;;;4.80;;
78871;SDS011;68247;43.514;1.502;2023-04-24T00:10:51;8.97;;;4.70;;
78871;SDS011;68247;43.514;1.502;2023-04-24T00:13:17;11.88;;;4.55;;
78871;SDS011;68247;43.514;1.502;2023-04-24T00:15:43;14.68;;;5.57;;
78871;SDS011;68247;43.514;1.502;2023-04-24T00:18:08;13.17;;;5.17;;
78871;SDS011;68247;43.514;1.502;2023-04-24T00:20:34;14.00;;;5.43;;
78871;SDS011;68247;43.514;1.502;2023-04-24T00:23:00;13.27;;;5.53;;
78871;SDS011;68247;43.514;1.502;2023-04-24T00:25:26;13.03;;;5.20;;
78871;SDS011;68247;43.514;1.502;2023-04-24T00:27:51;10.30;;;5.07;;
78871;SDS011;68247;43.514;1.502;2023-04-24T00:30:16;11.13;;;5.18;;
78871;SDS011;68247;43.514;1.502;2023-04-24T00:32:42;10.83;;;4.50;;
78871;SDS011;68247;43.514;1.502;2023-04-24T00:35:07;11.17;;;4.57;;
78871;SDS011;68247;43.514;1.502;2023-04-24T00:37:33;12.93;;;3.90;;
78871;SDS011;68247;43.514;1.502;2023-04-24T00:39:58;9.47;;;3.43;;
78871;SDS011;68247;43.514;1.502;2023-04-24T00:42:24;11.43;;;3.70;;
78871;SDS011;68247;43.514;1.502;2023-04-24T00:44:49;10.57;;;3.60;;
78871;SDS011;68247;43.514;1.502;2023-04-24T00:47:15;8.25;;;3.20;;
78871;SDS011;68247;43.514;1.502;2023-04-24T00:49:41;10.50;;;2.80;;
78871;SDS011;68247;43.514;1.502;2023-04-24T00:52:06;11.03;;;3.07;;
78871;SDS011;68247;43.514;1.502;2023-04-24T00:54:33;7.70;;;3.60;;
78871;SDS011;68247;43.514;1.502;2023-04-24T00:56:59;8.53;;;2.70;;
78871;SDS011;68247;43.514;1.502;2023-04-24T00:59:26;6.72;;;2.72;;
78871;SDS011;68247;43.514;1.502;2023-04-24T01:01:51;5.53;;;2.67;;
78871;SDS011;68247;43.514;1.502;2023-04-24T01:04:17;9.25;;;2.78;;
78871;SDS011;68247;43.514;1.502;2023-04-24T01:06:43;9.27;;;3.03;;
78871;SDS011;68247;43.514;1.502;2023-04-24T01:09:10;6.20;;;3.03;;
78871;SDS011;68247;43.514;1.502;2023-04-24T01:11:36;5.43;;;2.75;;
78871;SDS011;68247;43.514;1.502;2023-04-24T01:14:02;10.25;;;2.92;;
78871;SDS011;68247;43.514;1.502;2023-04-24T01:16:27;7.93;;;3.07;;
78871;SDS011;68247;43.514;1.502;2023-04-24T01:18:53;8.13;;;2.83;;
78871;SDS011;68247;43.514;1.502;2023-04-24T01:21:18;8.63;;;3.37;;
78871;SDS011;68247;43.514;1.502;2023-04-24T01:23:46;7.25;;;3.10;;
78871;SDS011;68247;43.514;1.502;2023-04-24T01:26:12;6.70;;;3.00;;
78871;SDS011;68247;43.514;1.502;2023-04-24T01:28:40;9.40;;;2.75;;
78871;SDS011;68247;43.514;1.502;2023-04-24T01:31:06;12.27;;;3.47;;
78871;SDS011;68247;43.514;1.502;2023-04-24T01:33:32;9.93;;;3.33;;
78871;SDS011;68247;43.514;1.502;2023-04-24T01:35:57;7.17;;;2.43;;
78871;SDS011;68247;43.514;1.502;2023-04-24T01:38:23;9.50;;;2.83;;
78871;SDS011;68247;43.514;1.502;2023-04-24T01:40:49;5.53;;;2.40;;
78871;SDS011;68247;43.514;1.502;2023-04-24T01:43:15;10.77;;;2.30;;
78871;SDS011;68247;43.514;1.502;2023-04-24T01:45:40;6.00;;;2.50;;
78871;SDS011;68247;43.514;1.502;2023-04-24T01:48:06;12.10;;;2.60;;
78871;SDS011;68247;43.514;1.502;2023-04-24T01:50:31;6.40;;;2.05;;
78871;SDS011;68247;43.514;1.502;2023-04-24T01:52:57;6.87;;;2.50;;
78871;SDS011;68247;43.514;1.502;2023-04-24T01:55:23;8.50;;;2.50;;
78871;SDS011;68247;43.514;1.502;2023-04-24T01:57:48;8.52;;;2.53;;
78871;SDS011;68247;43.514;1.502;2023-04-24T02:00:15;6.97;;;2.47;;
78871;SDS011;68247;43.514;1.502;2023-04-24T02:02:40;7.45;;;2.20;;
78871;SDS011;68247;43.514;1.502;2023-04-24T02:05:06;6.10;;;2.30;;
78871;SDS011;68247;43.514;1.502;2023-04-24T02:07:33;9.00;;;2.80;;
78871;SDS011;68247;43.514;1.502;2023-04-24T02:09:58;5.80;;;2.37;;
78871;SDS011;68247;43.514;1.502;2023-04-24T02:12:24;8.65;;;2.50;;
78871;SDS011;68247;43.514;1.502;2023-04-24T02:14:49;7.80;;;2.87;;
78871;SDS011;68247;43.514;1.502;2023-04-24T02:17:15;13.70;;;3.13;;
78871;SDS011;68247;43.514;1.502;2023-04-24T02:19:41;6.60;;;2.50;;
78871;SDS011;68247;43.514;1.502;2023-04-24T02:22:06;4.67;;;2.33;;
78871;SDS011;68247;43.514;1.502;2023-04-24T02:24:32;6.72;;;2.42;;
78871;SDS011;68247;43.514;1.502;2023-04-24T02:26:57;7.67;;;2.33;;
78871;SDS011;68247;43.514;1.502;2023-04-24T02:29:23;5.80;;;2.50;;
78871;SDS011;68247;43.514;1.502;2023-04-24T02:31:48;9.65;;;2.28;;
78871;SDS011;68247;43.514;1.502;2023-04-24T02:34:13;6.10;;;2.30;;
78871;SDS011;68247;43.514;1.502;2023-04-24T02:36:39;8.03;;;3.27;;
78871;SDS011;68247;43.514;1.502;2023-04-24T02:39:04;9.80;;;2.57;;
78871;SDS011;68247;43.514;1.502;2023-04-24T02:41:30;6.03;;;2.40;;
78871;SDS011;68247;43.514;1.502;2023-04-24T02:44:00;7.57;;;2.13;;
78871;SDS011;68247;43.514;1.502;2023-04-24T02:46:26;7.13;;;2.50;;
78871;SDS011;68247;43.514;1.502;2023-04-24T02:48:51;8.13;;;2.50;;
78871;SDS011;68247;43.514;1.502;2023-04-24T02:51:17;7.38;;;2.30;;
78871;SDS011;68247;43.514;1.502;2023-04-24T02:53:42;10.70;;;2.03;;
78871;SDS011;68247;43.514;1.502;2023-04-24T02:56:07;4.93;;;2.13;;
78871;SDS011;68247;43.514;1.502;2023-04-24T02:58:33;5.80;;;1.80;;
78871;SDS011;68247;43.514;1.502;2023-04-24T03:00:59;6.60;;;2.38;;
78871;SDS011;68247;43.514;1.502;2023-04-24T03:03:25;5.85;;;1.98;;
78871;SDS011;68247;43.514;1.502;2023-04-24T03:05:51;8.83;;;2.37;;
78871;SDS011;68247;43.514;1.502;2023-04-24T03:08:16;7.20;;;1.73;;
78871;SDS011;68247;43.514;1.502;2023-04-24T03:10:42;8.73;;;2.00;;
78871;SDS011;68247;43.514;1.502;2023-04-24T03:13:08;7.07;;;2.00;;
78871;SDS011;68247;43.514;1.502;2023-04-24T03:15:33;8.98;;;1.75;;
78871;SDS011;68247;43.514;1.502;2023-04-24T03:17:58;7.77;;;1.60;;
78871;SDS011;68247;43.514;1.502;2023-04-24T03:20:25;8.93;;;1.77;;
78871;SDS011;68247;43.514;1.502;2023-04-24T03:22:50;10.30;;;1.80;;
78871;SDS011;68247;43.514;1.502;2023-04-24T03:25:16;7.93;;;2.00;;
78871;SDS011;68247;43.514;1.502;2023-04-24T03:27:41;6.70;;;1.87;;
78871;SDS011;68247;43.514;1.502;2023-04-24T03:30:07;6.60;;;1.55;;
78871;SDS011;68247;43.514;1.502;2023-04-24T03:32:33;5.37;;;1.60;;
78871;SDS011;68247;43.514;1.502;2023-04-24T03:34:58;7.63;;;2.17;;
78871;SDS011;68247;43.514;1.502;2023-04-24T03:37:24;9.43;;;1.93;;
78871;SDS011;68247;43.514;1.502;2023-04-24T03:39:49;6.03;;;1.50;;
78871;SDS011;68247;43.514;1.502;2023-04-24T03:42:14;8.00;;;1.90;;
78871;SDS011;68247;43.514;1.502;2023-04-24T03:44:40;5.60;;;1.73;;
78871;SDS011;68247;43.514;1.502;2023-04-24T03:47:05;5.47;;;1.90;;
78871;SDS011;68247;43.514;1.502;2023-04-24T03:49:31;6.13;;;1.50;;
78871;SDS011;68247;43.514;1.502;2023-04-24T03:51:56;8.83;;;2.30;;
78871;SDS011;68247;43.514;1.502;2023-04-24T03:54:22;7.57;;;1.80;;
78871;SDS011;68247;43.514;1.502;2023-04-24T03:56:47;8.60;;;2.23;;
78871;SDS011;68247;43.514;1.502;2023-04-24T03:59:12;9.57;;;2.23;;
78871;SDS011;68247;43.514;1.502;2023-04-24T04:01:38;5.17;;;1.70;;
78871;SDS011;68247;43.514;1.502;2023-04-24T04:04:04;5.28;;;1.70;;
78871;SDS011;68247;43.514;1.502;2023-04-24T04:06:30;5.43;;;1.70;;
78871;SDS011;68247;43.514;1.502;2023-04-24T04:08:56;4.20;;;1.40;;
78871;SDS011;68247;43.514;1.502;2023-04-24T04:11:22;4.57;;;1.70;;
78871;SDS011;68247;43.514;1.502;2023-04-24T04:13:47;9.03;;;1.83;;
78871;SDS011;68247;43.514;1.502;2023-04-24T04:16:13;7.20;;;1.52;;
78871;SDS011;68247;43.514;1.502;2023-04-24T04:18:38;5.60;;;1.67;;
78871;SDS011;68247;43.514;1.502;2023-04-24T04:21:04;4.47;;;1.60;;
78871;SDS011;68247;43.514;1.502;2023-04-24T04:23:29;5.60;;;1.87;;
78871;SDS011;68247;43.514;1.502;2023-04-24T04:25:55;5.20;;;1.50;;
78871;SDS011;68247;43.514;1.502;2023-04-24T04:28:20;5.20;;;1.53;;
78871;SDS011;68247;43.514;1.502;2023-04-24T04:30:46;5.75;;;1.70;;
78871;SDS011;68247;43.514;1.502;2023-04-24T04:33:12;3.97;;;1.90;;
78871;SDS011;68247;43.514;1.502;2023-04-24T04:35:38;8.33;;;1.87;;
78871;SDS011;68247;43.514;1.502;2023-04-24T04:38:03;8.33;;;2.20;;
78871;SDS011;68247;43.514;1.502;2023-04-24T04:40:29;7.40;;;2.27;;
78871;SDS011;68247;43.514;1.502;2023-04-24T04:42:55;6.10;;;1.88;;
78871;SDS011;68247;43.514;1.502;2023-04-24T04:45:20;6.73;;;1.50;;
78871;SDS011;68247;43.514;1.502;2023-04-24T04:47:46;5.57;;;1.80;;
78871;SDS011;68247;43.514;1.502;2023-04-24T04:50:12;5.77;;;1.63;;
78871;SDS011;68247;43.514;1.502;2023-04-24T04:52:38;5.78;;;2.45;;
78871;SDS011;68247;43.514;1.502;2023-04-24T04:55:04;8.07;;;2.10;;
78871;SDS011;68247;43.514;1.502;2023-04-24T04:57:30;5.93;;;2.00;;
78871;SDS011;68247;43.514;1.502;2023-04-24T04:59:56;7.60;;;1.95;;
78871;SDS011;68247;43.514;1.502;2023-04-24T05:02:21;6.03;;;1.97;;
78871;SDS011;68247;43.514;1.502;2023-04-24T05:04:46;4.30;;;1.57;;
78871;SDS011;68247;43.514;1.502;2023-04-24T05:07:12;10.90;;;2.60;;
78871;SDS011;68247;43.514;1.502;2023-04-24T05:09:37;5.05;;;1.92;;
78871;SDS011;68247;43.514;1.502;2023-04-24T05:12:03;8.83;;;1.90;;
78871;SDS011;68247;43.514;1.502;2023-04-24T05:14:28;8.00;;;2.27;;
78871;SDS011;68247;43.514;1.502;2023-04-24T05:16:54;9.80;;;2.27;;
78871;SDS011;68247;43.514;1.502;2023-04-24T05:19:19;5.70;;;1.67;;
78871;SDS011;68247;43.514;1.502;2023-04-24T05:21:45;8.67;;;1.80;;
78871;SDS011;68247;43.514;1.502;2023-04-24T05:24:10;11.98;;;2.35;;
78871;SDS011;68247;43.514;1.502;2023-04-24T05:26:36;8.23;;;2.20;;
78871;SDS011;68247;43.514;1.502;2023-04-24T05:29:02;5.10;;;2.10;;
78871;SDS011;68247;43.514;1.502;2023-04-24T05:31:27;11.30;;;2.05;;
78871;SDS011;68247;43.514;1.502;2023-04-24T05:33:53;6.80;;;2.07;;
78871;SDS011;68247;43.514;1.502;2023-04-24T05:36:18;4.73;;;2.10;;
78871;SDS011;68247;43.514;1.502;2023-04-24T05:38:44;9.10;;;2.20;;
78871;SDS011;68247;43.514;1.502;2023-04-24T05:41:10;8.23;;;2.03;;
78871;SDS011;68247;43.514;1.502;2023-04-24T05:43:35;8.07;;;2.20;;
78871;SDS011;68247;43.514;1.502;2023-04-24T05:46:00;8.73;;;2.00;;
78871;SDS011;68247;43.514;1.502;2023-04-24T05:48:26;8.53;;;2.10;;
78871;SDS011;68247;43.514;1.502;2023-04-24T05:50:51;9.37;;;2.33;;
78871;SDS011;68247;43.514;1.502;2023-04-24T05:53:17;8.43;;;2.08;;
78871;SDS011;68247;43.514;1.502;2023-04-24T05:55:43;9.00;;;2.38;;
78871;SDS011;68247;43.514;1.502;2023-04-24T05:58:09;8.33;;;2.80;;
78871;SDS011;68247;43.514;1.502;2023-04-24T06:00:34;7.78;;;2.60;;
78871;SDS011;68247;43.514;1.502;2023-04-24T06:03:00;7.50;;;2.40;;
78871;SDS011;68247;43.514;1.502;2023-04-24T06:05:26;6.33;;;1.90;;
78871;SDS011;68247;43.514;1.502;2023-04-24T06:07:51;6.83;;;2.20;;
78871;SDS011;68247;43.514;1.502;2023-04-24T06:10:17;7.10;;;1.80;;
78871;SDS011;68247;43.514;1.502;2023-04-24T06:12:42;10.73;;;2.28;;
78871;SDS011;68247;43.514;1.502;2023-04-24T06:15:08;8.10;;;1.73;;
78871;SDS011;68247;43.514;1.502;2023-04-24T06:17:33;5.93;;;2.03;;
78871;SDS011;68247;43.514;1.502;2023-04-24T06:19:59;7.57;;;2.40;;
78871;SDS011;68247;43.514;1.502;2023-04-24T06:22:24;6.43;;;2.00;;
78871;SDS011;68247;43.514;1.502;2023-04-24T06:24:50;7.83;;;1.90;;
78871;SDS011;68247;43.514;1.502;2023-04-24T06:27:15;6.03;;;1.87;;
78871;SDS011;68247;43.514;1.502;2023-04-24T06:29:40;7.88;;;1.95;;
78871;SDS011;68247;43.514;1.502;2023-04-24T06:32:06;8.90;;;2.13;;
78871;SDS011;68247;43.514;1.502;2023-04-24T06:34:32;6.03;;;2.05;;
78871;SDS011;68247;43.514;1.502;2023-04-24T06:36:59;9.10;;;2.20;;
78871;SDS011;68247;43.514;1.502;2023-04-24T06:39:24;7.55;;;2.33;;
78871;SDS011;68247;43.514;1.502;2023-04-24T06:41:50;6.07;;;1.80;;
78871;SDS011;68247;43.514;1.502;2023-04-24T06:44:15;8.00;;;2.70;;
78871;SDS011;68247;43.514;1.502;2023-04-24T06:46:41;5.13;;;2.10;;
78871;SDS011;68247;43.514;1.502;2023-04-24T06:49:07;6.47;;;2.05;;
78871;SDS011;68247;43.514;1.502;2023-04-24T06:51:32;9.50;;;2.47;;
78871;SDS011;68247;43.514;1.502;2023-04-24T06:53:58;7.13;;;2.50;;
78871;SDS011;68247;43.514;1.502;2023-04-24T06:56:23;7.93;;;2.38;;
78871;SDS011;68247;43.514;1.502;2023-04-24T06:58:50;10.90;;;2.20;;
78871;SDS011;68247;43.514;1.502;2023-04-24T07:01:16;5.73;;;2.10;;
78871;SDS011;68247;43.514;1.502;2023-04-24T07:03:41;7.27;;;2.00;;
78871;SDS011;68247;43.514;1.502;2023-04-24T07:06:07;9.13;;;2.10;;
78871;SDS011;68247;43.514;1.502;2023-04-24T07:08:32;7.70;;;2.20;;
78871;SDS011;68247;43.514;1.502;2023-04-24T07:10:58;5.88;;;2.20;;
78871;SDS011;68247;43.514;1.502;2023-04-24T07:13:24;7.67;;;2.27;;
78871;SDS011;68247;43.514;1.502;2023-04-24T07:15:49;7.03;;;2.10;;
78871;SDS011;68247;43.514;1.502;2023-04-24T07:18:16;8.47;;;2.13;;
78871;SDS011;68247;43.514;1.502;2023-04-24T07:20:41;10.25;;;2.10;;
78871;SDS011;68247;43.514;1.502;2023-04-24T07:23:07;5.88;;;2.13;;
78871;SDS011;68247;43.514;1.502;2023-04-24T07:25:32;8.97;;;2.07;;
78871;SDS011;68247;43.514;1.502;2023-04-24T07:27:58;6.87;;;1.97;;
78871;SDS011;68247;43.514;1.502;2023-04-24T07:30:23;9.03;;;2.20;;
78871;SDS011;68247;43.514;1.502;2023-04-24T07:32:49;6.60;;;1.93;;
78871;SDS011;68247;43.514;1.502;2023-04-24T07:35:15;9.07;;;1.83;;
78871;SDS011;68247;43.514;1.502;2023-04-24T07:37:40;14.75;;;4.45;;
78871;SDS011;68247;43.514;1.502;2023-04-24T07:40:10;5.93;;;1.40;;
78871;SDS011;68247;43.514;1.502;2023-04-24T07:42:39;7.73;;;1.90;;
78871;SDS011;68247;43.514;1.502;2023-04-24T07:45:05;7.63;;;2.50;;
78871;SDS011;68247;43.514;1.502;2023-04-24T07:47:31;3.95;;;1.33;;
78871;SDS011;68247;43.514;1.502;2023-04-24T07:49:57;6.70;;;1.87;;
78871;SDS011;68247;43.514;1.502;2023-04-24T07:52:23;4.28;;;1.15;;
78871;SDS011;68247;43.514;1.502;2023-04-24T07:54:48;4.40;;;1.10;;
78871;SDS011;68247;43.514;1.502;2023-04-24T07:57:15;4.45;;;1.08;;
78871;SDS011;68247;43.514;1.502;2023-04-24T07:59:40;3.90;;;1.20;;
78871;SDS011;68247;43.514;1.502;2023-04-24T08:02:06;4.23;;;1.37;;
78871;SDS011;68247;43.514;1.502;2023-04-24T08:04:32;3.97;;;1.30;;
78871;SDS011;68247;43.514;1.502;2023-04-24T08:06:57;3.97;;;1.10;;
78871;SDS011;68247;43.514;1.502;2023-04-24T08:09:23;5.93;;;1.23;;
78871;SDS011;68247;43.514;1.502;2023-04-24T08:11:48;4.28;;;1.23;;
78871;SDS011;68247;43.514;1.502;2023-04-24T08:14:13;6.33;;;1.23;;
78871;SDS011;68247;43.514;1.502;2023-04-24T08:16:40;5.43;;;1.30;;
78871;SDS011;68247;43.514;1.502;2023-04-24T08:19:05;7.30;;;1.00;;
78871;SDS011;68247;43.514;1.502;2023-04-24T08:21:31;4.65;;;0.90;;
78871;SDS011;68247;43.514;1.502;2023-04-24T08:23:57;4.47;;;1.20;;
78871;SDS011;68247;43.514;1.502;2023-04-24T08:26:22;3.33;;;0.80;;
78871;SDS011;68247;43.514;1.502;2023-04-24T08:28:47;4.90;;;1.40;;
78871;SDS011;68247;43.514;1.502;2023-04-24T08:31:13;4.47;;;1.17;;
78871;SDS011;68247;43.514;1.502;2023-04-24T08:33:38;3.27;;;1.10;;
78871;SDS011;68247;43.514;1.502;2023-04-24T08:36:06;6.70;;;1.15;;
78871;SDS011;68247;43.514;1.502;2023-04-24T08:38:32;9.70;;;1.83;;
78871;SDS011;68247;43.514;1.502;2023-04-24T08:40:58;4.07;;;1.10;;
78871;SDS011;68247;43.514;1.502;2023-04-24T08:43:24;4.10;;;1.27;;
78871;SDS011;68247;43.514;1.502;2023-04-24T08:45:51;8.30;;;1.75;;
78871;SDS011;68247;43.514;1.502;2023-04-24T08:48:17;4.70;;;1.27;;
78871;SDS011;68247;43.514;1.502;2023-04-24T08:50:43;4.97;;;1.40;;
78871;SDS011;68247;43.514;1.502;2023-04-24T08:53:09;4.03;;;1.15;;
78871;SDS011;68247;43.514;1.502;2023-04-24T08:55:35;4.03;;;1.08;;
78871;SDS011;68247;43.514;1.502;2023-04-24T08:58:02;8.02;;;1.55;;
78871;SDS011;68247;43.514;1.502;2023-04-24T09:00:28;3.90;;;1.20;;
78871;SDS011;68247;43.514;1.502;2023-04-24T09:02:53;4.03;;;1.25;;
78871;SDS011;68247;43.514;1.502;2023-04-24T09:05:19;4.73;;;1.20;;
78871;SDS011;68247;43.514;1.502;2023-04-24T09:07:49;5.38;;;1.10;;
78871;SDS011;68247;43.514;1.502;2023-04-24T09:10:19;4.50;;;1.05;;
78871;SDS011;68247;43.514;1.502;2023-04-24T09:12:45;4.47;;;1.00;;
78871;SDS011;68247;43.514;1.502;2023-04-24T09:15:11;4.87;;;1.30;;
78871;SDS011;68247;43.514;1.502;2023-04-24T09:17:37;4.97;;;1.30;;
78871;SDS011;68247;43.514;1.502;2023-04-24T09:20:03;3.65;;;1.27;;
78871;SDS011;68247;43.514;1.502;2023-04-24T09:22:32;3.57;;;1.07;;
78871;SDS011;68247;43.514;1.502;2023-04-24T09:25:04;4.72;;;1.73;;
78871;SDS011;68247;43.514;1.502;2023-04-24T09:27:32;6.05;;;2.03;;
78871;SDS011;68247;43.514;1.502;2023-04-24T09:29:58;4.82;;;1.10;;
78871;SDS011;68247;43.514;1.502;2023-04-24T09:32:24;3.83;;;1.10;;
78871;SDS011;68247;43.514;1.502;2023-04-24T09:35:11;6.43;;;1.30;;
78871;SDS011;68247;43.514;1.502;2023-04-24T09:37:41;7.28;;;1.40;;
78871;SDS011;68247;43.514;1.502;2023-04-24T09:40:10;5.00;;;1.17;;
78871;SDS011;68247;43.514;1.502;2023-04-24T09:42:37;3.50;;;0.82;;
78871;SDS011;68247;43.514;1.502;2023-04-24T09:45:04;2.42;;;1.20;;
78871;SDS011;68247;43.514;1.502;2023-04-24T09:47:38;2.97;;;0.90;;
78871;SDS011;68247;43.514;1.502;2023-04-24T09:50:12;5.40;;;1.30;;
78871;SDS011;68247;43.514;1.502;2023-04-24T09:52:40;3.17;;;0.90;;
78871;SDS011;68247;43.514;1.502;2023-04-24T09:55:14;3.95;;;1.20;;
78871;SDS011;68247;43.514;1.502;2023-04-24T09:57:51;3.90;;;1.30;;
78871;SDS011;68247;43.514;1.502;2023-04-24T10:00:29;3.97;;;1.40;;
78871;SDS011;68247;43.514;1.502;2023-04-24T10:02:56;5.22;;;1.80;;
78871;SDS011;68247;43.514;1.502;2023-04-24T10:05:30;4.20;;;1.25;;
78871;SDS011;68247;43.514;1.502;2023-04-24T10:08:04;3.42;;;1.10;;
78871;SDS011;68247;43.514;1.502;2023-04-24T10:10:31;5.55;;;1.58;;
78871;SDS011;68247;43.514;1.502;2023-04-24T10:13:00;4.17;;;1.40;;
78871;SDS011;68247;43.514;1.502;2023-04-24T10:15:26;5.13;;;1.40;;
78871;SDS011;68247;43.514;1.502;2023-04-24T10:17:52;4.03;;;1.10;;
78871;SDS011;68247;43.514;1.502;2023-04-24T10:20:21;4.93;;;1.20;;
78871;SDS011;68247;43.514;1.502;2023-04-24T10:22:49;4.95;;;1.08;;
78871;SDS011;68247;43.514;1.502;2023-04-24T10:25:19;3.95;;;1.42;;
78871;SDS011;68247;43.514;1.502;2023-04-24T10:27:45;3.92;;;1.10;;
78871;SDS011;68247;43.514;1.502;2023-04-24T10:30:12;4.38;;;1.10;;
78871;SDS011;68247;43.514;1.502;2023-04-24T10:32:38;4.57;;;1.00;;
78871;SDS011;68247;43.514;1.502;2023-04-24T10:35:03;3.50;;;1.30;;
78871;SDS011;68247;43.514;1.502;2023-04-24T10:37:29;3.50;;;1.00;;
78871;SDS011;68247;43.514;1.502;2023-04-24T10:40:00;4.90;;;1.65;;
78871;SDS011;68247;43.514;1.502;2023-04-24T10:42:27;2.63;;;1.02;;
78871;SDS011;68247;43.514;1.502;2023-04-24T10:44:52;2.75;;;1.15;;
78871;SDS011;68247;43.514;1.502;2023-04-24T10:47:19;3.43;;;1.03;;
78871;SDS011;68247;43.514;1.502;2023-04-24T10:49:44;4.72;;;1.45;;
78871;SDS011;68247;43.514;1.502;2023-04-24T10:52:10;3.60;;;1.10;;
78871;SDS011;68247;43.514;1.502;2023-04-24T10:59:50;3.25;;;1.17;;
78871;SDS011;68247;43.514;1.502;2023-04-24T11:02:17;3.67;;;1.00;;
78871;SDS011;68247;43.514;1.502;2023-04-24T11:04:43;4.67;;;1.07;;
78871;SDS011;68247;43.514;1.502;2023-04-24T11:07:09;3.58;;;1.00;;
78871;SDS011;68247;43.514;1.502;2023-04-24T11:09:35;5.47;;;1.23;;
78871;SDS011;68247;43.514;1.502;2023-04-24T11:12:08;3.05;;;0.95;;
78871;SDS011;68247;43.514;1.502;2023-04-24T11:17:35;3.03;;;0.98;;
78871;SDS011;68247;43.514;1.502;2023-04-24T11:20:06;3.90;;;1.00;;
78871;SDS011;68247;43.514;1.502;2023-04-24T11:22:34;5.10;;;1.08;;
78871;SDS011;68247;43.514;1.502;2023-04-24T11:25:01;2.85;;;1.20;;
78871;SDS011;68247;43.514;1.502;2023-04-24T11:27:31;4.73;;;1.10;;
78871;SDS011;68247;43.514;1.502;2023-04-24T11:30:04;5.18;;;1.00;;
78871;SDS011;68247;43.514;1.502;2023-04-24T11:34:59;2.78;;;1.05;;
78871;SDS011;68247;43.514;1.502;2023-04-24T11:37:33;4.80;;;1.40;;
78871;SDS011;68247;43.514;1.502;2023-04-24T11:40:00;5.67;;;1.10;;
78871;SDS011;68247;43.514;1.502;2023-04-24T11:42:25;3.70;;;1.20;;
78871;SDS011;68247;43.514;1.502;2023-04-24T11:44:54;3.40;;;1.13;;
78871;SDS011;68247;43.514;1.502;2023-04-24T11:47:27;4.25;;;1.13;;
78871;SDS011;68247;43.514;1.502;2023-04-24T11:49:56;4.28;;;1.20;;
78871;SDS011;68247;43.514;1.502;2023-04-24T11:52:22;3.23;;;1.13;;
78871;SDS011;68247;43.514;1.502;2023-04-24T11:54:48;4.10;;;1.30;;
78871;SDS011;68247;43.514;1.502;2023-04-24T11:57:15;4.27;;;1.17;;
78871;SDS011;68247;43.514;1.502;2023-04-24T11:59:40;4.22;;;1.38;;
78871;SDS011;68247;43.514;1.502;2023-04-24T12:02:06;3.10;;;1.10;;
78871;SDS011;68247;43.514;1.502;2023-04-24T12:04:40;5.37;;;2.00;;
78871;SDS011;68247;43.514;1.502;2023-04-24T12:07:06;3.45;;;1.20;;
78871;SDS011;68247;43.514;1.502;2023-04-24T12:09:43;3.10;;;1.00;;
78871;SDS011;68247;43.514;1.502;2023-04-24T12:12:11;3.55;;;1.40;;
78871;SDS011;68247;43.514;1.502;2023-04-24T12:14:58;4.30;;;1.37;;
78871;SDS011;68247;43.514;1.502;2023-04-24T12:17:30;4.32;;;1.40;;
78871;SDS011;68247;43.514;1.502;2023-04-24T12:20:05;3.45;;;1.10;;
78871;SDS011;68247;43.514;1.502;2023-04-24T12:22:50;3.58;;;1.40;;
78871;SDS011;68247;43.514;1.502;2023-04-24T12:25:30;4.32;;;1.20;;
78871;SDS011;68247;43.514;1.502;2023-04-24T12:30:28;5.38;;;1.70;;
78871;SDS011;68247;43.514;1.502;2023-04-24T12:32:56;4.53;;;1.42;;
78871;SDS011;68247;43.514;1.502;2023-04-24T12:35:23;4.15;;;1.38;;
78871;SDS011;68247;43.514;1.502;2023-04-24T12:37:50;3.28;;;1.17;;
78871;SDS011;68247;43.514;1.502;2023-04-24T12:40:16;4.40;;;1.47;;
78871;SDS011;68247;43.514;1.502;2023-04-24T12:42:43;4.07;;;1.70;;
78871;SDS011;68247;43.514;1.502;2023-04-24T12:45:12;3.40;;;1.10;;
78871;SDS011;68247;43.514;1.502;2023-04-24T12:47:39;4.70;;;1.52;;
78871;SDS011;68247;43.514;1.502;2023-04-24T12:50:05;3.58;;;1.50;;
78871;SDS011;68247;43.514;1.502;2023-04-24T12:52:32;4.60;;;1.30;;
78871;SDS011;68247;43.514;1.502;2023-04-24T12:54:58;3.53;;;1.40;;
78871;SDS011;68247;43.514;1.502;2023-04-24T12:57:25;4.45;;;1.67;;
78871;SDS011;68247;43.514;1.502;2023-04-24T12:59:53;4.70;;;1.20;;
78871;SDS011;68247;43.514;1.502;2023-04-24T13:02:19;5.60;;;1.30;;
78871;SDS011;68247;43.514;1.502;2023-04-24T13:04:46;3.63;;;1.55;;
78871;SDS011;68247;43.514;1.502;2023-04-24T13:07:12;5.50;;;1.92;;
78871;SDS011;68247;43.514;1.502;2023-04-24T13:09:38;4.45;;;1.80;;
78871;SDS011;68247;43.514;1.502;2023-04-24T13:12:04;3.30;;;1.60;;
78871;SDS011;68247;43.514;1.502;2023-04-24T13:14:30;4.57;;;1.58;;
78871;SDS011;68247;43.514;1.502;2023-04-24T13:16:56;3.80;;;1.35;;
78871;SDS011;68247;43.514;1.502;2023-04-24T13:19:23;3.70;;;1.73;;
78871;SDS011;68247;43.514;1.502;2023-04-24T13:21:50;3.67;;;1.30;;
78871;SDS011;68247;43.514;1.502;2023-04-24T13:24:16;5.00;;;1.30;;
78871;SDS011;68247;43.514;1.502;2023-04-24T13:26:42;4.97;;;1.60;;
78871;SDS011;68247;43.514;1.502;2023-04-24T13:29:07;6.17;;;1.80;;
78871;SDS011;68247;43.514;1.502;2023-04-24T13:31:33;4.45;;;1.35;;
78871;SDS011;68247;43.514;1.502;2023-04-24T13:33:58;4.20;;;1.37;;
78871;SDS011;68247;43.514;1.502;2023-04-24T13:36:24;4.07;;;1.40;;
78871;SDS011;68247;43.514;1.502;2023-04-24T13:38:50;5.35;;;1.40;;
78871;SDS011;68247;43.514;1.502;2023-04-24T13:41:15;4.00;;;1.23;;
78871;SDS011;68247;43.514;1.502;2023-04-24T13:43:41;3.93;;;1.50;;
78871;SDS011;68247;43.514;1.502;2023-04-24T13:46:07;4.10;;;2.03;;
78871;SDS011;68247;43.514;1.502;2023-04-24T13:48:33;4.90;;;2.10;;
78871;SDS011;68247;43.514;1.502;2023-04-24T13:50:59;3.27;;;1.70;;
78871;SDS011;68247;43.514;1.502;2023-04-24T13:53:24;4.55;;;1.42;;
78871;SDS011;68247;43.514;1.502;2023-04-24T13:55:50;3.73;;;1.70;;
78871;SDS011;68247;43.514;1.502;2023-04-24T13:58:15;5.13;;;1.40;;
78871;SDS011;68247;43.514;1.502;2023-04-24T14:00:41;4.03;;;1.60;;
78871;SDS011;68247;43.514;1.502;2023-04-24T14:03:06;3.63;;;1.42;;
78871;SDS011;68247;43.514;1.502;2023-04-24T14:05:31;3.77;;;1.57;;
78871;SDS011;68247;43.514;1.502;2023-04-24T14:07:57;4.37;;;1.60;;
78871;SDS011;68247;43.514;1.502;2023-04-24T14:10:23;4.13;;;1.50;;
78871;SDS011;68247;43.514;1.502;2023-04-24T14:12:48;4.07;;;1.30;;
78871;SDS011;68247;43.514;1.502;2023-04-24T14:15:14;4.73;;;1.50;;
78871;SDS011;68247;43.514;1.502;2023-04-24T14:17:39;3.83;;;1.40;;
78871;SDS011;68247;43.514;1.502;2023-04-24T14:20:05;3.20;;;1.50;;
78871;SDS011;68247;43.514;1.502;2023-04-24T14:22:31;6.40;;;1.50;;
78871;SDS011;68247;43.514;1.502;2023-04-24T14:24:57;4.97;;;1.38;;
78871;SDS011;68247;43.514;1.502;2023-04-24T14:27:22;5.73;;;1.50;;
78871;SDS011;68247;43.514;1.502;2023-04-24T14:29:49;4.78;;;1.98;;
78871;SDS011;68247;43.514;1.502;2023-04-24T14:32:14;4.97;;;1.50;;
78871;SDS011;68247;43.514;1.502;2023-04-24T14:34:40;5.93;;;1.60;;
78871;SDS011;68247;43.514;1.502;2023-04-24T14:37:06;4.60;;;1.63;;
78871;SDS011;68247;43.514;1.502;2023-04-24T14:39:32;5.05;;;1.50;;
78871;SDS011;68247;43.514;1.502;2023-04-24T14:41:57;4.83;;;1.60;;
78871;SDS011;68247;43.514;1.502;2023-04-24T14:44:23;5.30;;;1.37;;
78871;SDS011;68247;43.514;1.502;2023-04-24T14:46:48;6.05;;;1.35;;
78871;SDS011;68247;43.514;1.502;2023-04-24T14:49:14;5.20;;;1.43;;
78871;SDS011;68247;43.514;1.502;2023-04-24T14:51:40;6.93;;;1.50;;
78871;SDS011;68247;43.514;1.502;2023-04-24T14:54:06;3.57;;;1.30;;